createdAt,value
2023-03-16T00:00:19.518Z,1.85
2023-03-16T00:02:47.196Z,1.63
2023-03-16T00:05:15.097Z,1.35
2023-03-16T00:07:42.936Z,1.40
2023-03-16T00:10:12.750Z,1.10
2023-03-16T00:12:43.546Z,1.10
2023-03-16T00:15:12.654Z,1.13
2023-03-16T00:17:39.931Z,0.80
2023-03-16T00:20:07.794Z,0.90
2023-03-16T00:22:35.175Z,1.00
2023-03-16T00:25:02.673Z,1.10
2023-03-16T00:27:30.042Z,0.98
2023-03-16T00:29:57.468Z,0.70
2023-03-16T00:32:28.407Z,0.90
2023-03-16T00:34:56.312Z,1.00
2023-03-16T00:37:26.334Z,1.10
2023-03-16T00:39:56.287Z,0.88
2023-03-16T00:42:27.509Z,0.80
2023-03-16T00:44:59.288Z,1.07
2023-03-16T00:47:29.775Z,1.17
2023-03-16T00:49:57.531Z,0.90
2023-03-16T00:52:27.545Z,0.90
2023-03-16T00:54:56.255Z,1.00
2023-03-16T00:57:25.546Z,0.80
2023-03-16T00:59:52.971Z,0.90
2023-03-16T01:02:23.717Z,0.73
2023-03-16T01:04:54.416Z,1.00
2023-03-16T01:07:22.578Z,1.02
2023-03-16T01:09:51.435Z,0.80
2023-03-16T01:12:19.818Z,0.82
2023-03-16T01:14:47.620Z,1.05
2023-03-16T01:17:17.276Z,0.73
2023-03-16T01:19:45.722Z,0.85
2023-03-16T01:22:13.614Z,0.88
2023-03-16T01:24:42.387Z,0.80
2023-03-16T01:27:09.765Z,0.73
2023-03-16T01:29:38.906Z,0.82
2023-03-16T01:32:07.382Z,0.93
2023-03-16T01:34:35.352Z,0.73
2023-03-16T01:37:03.762Z,1.08
2023-03-16T01:39:40.833Z,0.90
2023-03-16T01:42:09.564Z,0.90
2023-03-16T01:45:01.574Z,0.90
2023-03-16T01:47:38.335Z,0.90
2023-03-16T01:50:07.520Z,0.80
2023-03-16T01:52:38.799Z,1.15
2023-03-16T01:55:09.280Z,1.00
2023-03-16T01:57:42.654Z,1.08
2023-03-16T02:00:18.621Z,1.00
2023-03-16T02:03:15.647Z,0.90
2023-03-16T02:06:12.364Z,0.90
2023-03-16T02:08:47.065Z,0.77
2023-03-16T02:11:18.314Z,0.80
2023-03-16T02:14:05.188Z,0.80
2023-03-16T02:16:32.572Z,0.80
2023-03-16T02:19:00.037Z,0.80
2023-03-16T02:22:02.156Z,0.80
2023-03-16T02:24:30.882Z,1.00
2023-03-16T02:27:04.655Z,0.80
2023-03-16T02:29:59.536Z,0.80
2023-03-16T02:32:30.504Z,0.90
2023-03-16T02:34:59.063Z,0.63
2023-03-16T02:37:27.057Z,0.75
2023-03-16T02:39:54.562Z,0.90
2023-03-16T02:42:26.690Z,0.68
2023-03-16T02:45:00.890Z,1.00
2023-03-16T02:47:41.686Z,0.90
2023-03-16T02:50:12.475Z,0.85
2023-03-16T02:52:41.109Z,0.73
2023-03-16T02:55:09.289Z,1.00
2023-03-16T02:57:36.740Z,0.63
2023-03-16T03:00:17.529Z,0.75
2023-03-16T03:02:46.717Z,0.70
2023-03-16T03:05:14.156Z,0.70
2023-03-16T03:07:42.145Z,0.80
2023-03-16T03:10:11.147Z,0.80
2023-03-16T03:12:38.694Z,0.73
2023-03-16T03:15:09.318Z,0.65
2023-03-16T03:17:45.959Z,0.70
2023-03-16T03:20:16.734Z,0.77
2023-03-16T03:22:45.753Z,0.70
2023-03-16T03:25:16.953Z,0.90
2023-03-16T03:27:45.553Z,0.70
2023-03-16T03:30:21.378Z,0.80
2023-03-16T03:32:49.152Z,0.50
2023-03-16T03:35:19.408Z,0.90
2023-03-16T03:37:47.129Z,0.80
2023-03-16T03:40:18.042Z,0.80
2023-03-16T03:42:48.831Z,0.70
2023-03-16T03:45:16.773Z,0.80
2023-03-16T03:47:44.560Z,0.90
2023-03-16T03:50:17.115Z,0.88
2023-03-16T03:53:22.784Z,0.70
2023-03-16T03:56:09.677Z,0.80
2023-03-16T03:58:38.322Z,1.10
2023-03-16T04:01:06.031Z,0.90
2023-03-16T04:03:34.296Z,0.77
2023-03-16T04:06:02.088Z,0.60
2023-03-16T04:08:30.500Z,0.80
2023-03-16T04:10:57.813Z,0.70
2023-03-16T04:13:25.737Z,0.80
2023-03-16T04:16:02.695Z,0.90
2023-03-16T04:18:38.732Z,1.00
2023-03-16T04:21:12.638Z,0.70
2023-03-16T04:23:39.996Z,0.80
2023-03-16T04:26:07.458Z,0.80
2023-03-16T04:28:35.051Z,0.82
2023-03-16T04:31:07.063Z,0.80
2023-03-16T04:33:40.319Z,0.70
2023-03-16T04:36:09.171Z,0.65
2023-03-16T04:38:38.281Z,0.82
2023-03-16T04:41:06.836Z,0.98
2023-03-16T04:43:38.816Z,0.90
2023-03-16T04:46:12.893Z,0.70
2023-03-16T04:48:40.919Z,1.00
2023-03-16T04:51:09.347Z,0.82
2023-03-16T04:53:40.468Z,1.10
2023-03-16T04:56:18.363Z,1.00
2023-03-16T04:58:50.392Z,1.00
2023-03-16T05:01:19.364Z,0.90
2023-03-16T05:03:49.805Z,0.90
2023-03-16T05:06:17.828Z,0.75
2023-03-16T05:08:46.030Z,0.90
2023-03-16T05:11:13.394Z,0.93
2023-03-16T05:13:49.023Z,1.10
2023-03-16T05:16:16.776Z,1.00
2023-03-16T05:18:44.158Z,0.90
2023-03-16T05:21:12.737Z,1.20
2023-03-16T05:23:51.738Z,1.13
2023-03-16T05:26:19.697Z,0.73
2023-03-16T05:28:47.449Z,1.00
2023-03-16T05:31:18.391Z,1.20
2023-03-16T05:33:52.238Z,1.02
2023-03-16T05:36:20.930Z,1.10
2023-03-16T05:38:52.719Z,1.20
2023-03-16T05:41:39.608Z,1.00
2023-03-16T05:44:25.584Z,1.40
2023-03-16T05:47:04.099Z,1.40
2023-03-16T05:49:33.725Z,1.02
2023-03-16T05:52:04.262Z,1.20
2023-03-16T05:54:33.627Z,0.90
2023-03-16T05:57:00.935Z,1.30
2023-03-16T05:59:28.620Z,1.17
2023-03-16T06:01:58.114Z,0.93
2023-03-16T06:04:27.011Z,1.08
2023-03-16T06:06:54.546Z,1.45
2023-03-16T06:09:25.211Z,1.50
2023-03-16T06:11:52.560Z,1.95
2023-03-16T06:14:21.312Z,1.30
2023-03-16T06:16:49.957Z,1.30
2023-03-16T06:19:17.535Z,1.20
2023-03-16T06:21:47.623Z,1.02
2023-03-16T06:24:15.169Z,1.15
2023-03-16T06:26:42.468Z,1.13
2023-03-16T06:29:13.116Z,1.23
2023-03-16T06:31:41.603Z,1.38
2023-03-16T06:34:09.052Z,1.70
2023-03-16T06:36:38.868Z,6.10
2023-03-16T06:39:09.626Z,2.58
2023-03-16T06:41:42.667Z,1.73
2023-03-16T06:44:11.557Z,1.88
2023-03-16T06:46:45.804Z,1.42
2023-03-16T06:49:13.308Z,1.10
2023-03-16T06:51:41.886Z,1.13
2023-03-16T06:54:09.283Z,1.50
2023-03-16T06:56:39.944Z,1.67
2023-03-16T06:59:07.890Z,1.50
2023-03-16T07:01:37.216Z,1.40
2023-03-16T07:04:04.743Z,1.20
2023-03-16T07:06:35.697Z,2.17
2023-03-16T07:09:05.019Z,1.60
2023-03-16T07:11:32.720Z,1.88
2023-03-16T07:14:00.310Z,1.63
2023-03-16T07:16:28.700Z,1.27
2023-03-16T07:18:58.762Z,1.10
2023-03-16T07:21:26.212Z,1.30
2023-03-16T07:23:55.766Z,1.33
2023-03-16T07:26:26.468Z,1.27
2023-03-16T07:28:58.856Z,1.40
2023-03-16T07:31:26.616Z,1.40
2023-03-16T07:33:57.451Z,1.50
2023-03-16T07:36:45.149Z,1.63
2023-03-16T07:39:14.417Z,1.40
2023-03-16T07:41:42.754Z,1.38
2023-03-16T07:44:18.757Z,1.30
2023-03-16T07:46:49.709Z,1.10
2023-03-16T07:49:17.790Z,1.27
2023-03-16T07:51:47.107Z,1.58
2023-03-16T07:54:15.779Z,1.50
2023-03-16T07:56:49.283Z,1.70
2023-03-16T07:59:38.618Z,1.52
2023-03-16T08:02:06.742Z,2.00
2023-03-16T08:04:34.483Z,4.85
2023-03-16T08:07:03.033Z,2.80
2023-03-16T08:09:44.181Z,4.75
2023-03-16T08:12:15.711Z,2.20
2023-03-16T08:14:45.524Z,1.90
2023-03-16T08:17:17.612Z,1.80
2023-03-16T08:19:46.654Z,1.80
2023-03-16T08:22:14.115Z,1.80
2023-03-16T08:24:45.048Z,1.50
2023-03-16T08:27:16.097Z,1.70
2023-03-16T08:29:46.991Z,1.50
2023-03-16T08:32:18.325Z,1.50
2023-03-16T08:34:50.149Z,1.98
2023-03-16T08:37:18.665Z,1.27
2023-03-16T08:39:47.133Z,1.30
2023-03-16T08:42:17.377Z,1.13
2023-03-16T08:44:55.176Z,1.30
2023-03-16T08:47:23.050Z,1.10
2023-03-16T08:49:50.935Z,1.27
2023-03-16T08:52:19.322Z,1.17
2023-03-16T08:55:01.545Z,1.25
2023-03-16T08:57:30.051Z,1.23
2023-03-16T08:59:57.598Z,1.25
2023-03-16T09:02:25.739Z,1.45
2023-03-16T09:04:53.566Z,1.27
2023-03-16T09:07:20.888Z,0.80
2023-03-16T09:09:51.136Z,1.25
2023-03-16T09:12:18.765Z,1.02
2023-03-16T09:14:46.170Z,1.00
2023-03-16T09:17:13.507Z,1.17
2023-03-16T09:19:51.761Z,1.10
2023-03-16T09:22:20.860Z,1.00
2023-03-16T09:24:48.687Z,0.90
2023-03-16T09:27:18.838Z,0.98
2023-03-16T09:29:54.110Z,0.93
2023-03-16T09:32:21.772Z,1.00
2023-03-16T09:34:49.385Z,1.05
2023-03-16T09:37:17.338Z,1.05
2023-03-16T09:39:45.832Z,1.10
2023-03-16T09:42:39.314Z,1.10
2023-03-16T09:46:05.714Z,1.30
2023-03-16T09:48:37.696Z,1.33
2023-03-16T09:51:08.270Z,1.20
2023-03-16T09:53:40.787Z,0.75
2023-03-16T09:56:19.721Z,1.38
2023-03-16T09:58:47.205Z,1.27
2023-03-16T10:01:19.794Z,1.50
2023-03-16T10:04:06.089Z,1.27
2023-03-16T10:06:36.200Z,1.33
2023-03-16T10:09:26.327Z,1.45
2023-03-16T10:11:58.042Z,1.60
2023-03-16T10:14:40.365Z,1.40
2023-03-16T10:17:18.926Z,1.50
2023-03-16T10:20:04.860Z,1.40
2023-03-16T10:22:35.000Z,1.30
2023-03-16T10:25:13.066Z,1.17
2023-03-16T10:27:45.272Z,1.20
2023-03-16T10:30:19.812Z,1.50
2023-03-16T10:32:48.480Z,1.40
2023-03-16T10:35:40.597Z,1.30
2023-03-16T10:38:09.520Z,1.70
2023-03-16T10:40:38.938Z,1.60
2023-03-16T10:43:11.685Z,1.70
2023-03-16T10:45:39.413Z,1.30
2023-03-16T10:48:16.302Z,1.20
2023-03-16T10:50:52.231Z,1.40
2023-03-16T10:53:31.610Z,1.00
2023-03-16T10:56:12.037Z,1.50
2023-03-16T10:58:46.102Z,1.20
2023-03-16T11:01:18.665Z,1.60
2023-03-16T11:03:51.515Z,1.40
2023-03-16T11:06:30.688Z,1.40
2023-03-16T11:09:08.899Z,1.40
2023-03-16T11:11:36.719Z,1.40
2023-03-16T11:14:11.050Z,1.42
2023-03-16T11:16:43.381Z,1.33
2023-03-16T11:19:16.470Z,1.48
2023-03-16T11:22:04.240Z,1.38
2023-03-16T11:24:50.182Z,1.50
2023-03-16T11:27:35.213Z,1.42
2023-03-16T11:30:13.969Z,1.60
2023-03-16T11:32:46.861Z,1.70
2023-03-16T11:35:19.681Z,1.77
2023-03-16T11:38:13.929Z,1.58
2023-03-16T11:40:49.178Z,1.60
2023-03-16T11:43:40.687Z,1.67
2023-03-16T11:46:31.501Z,2.05
2023-03-16T11:49:20.215Z,1.45
2023-03-16T11:52:04.578Z,1.45
2023-03-16T11:54:34.898Z,1.50
2023-03-16T11:57:36.631Z,1.20
2023-03-16T12:00:17.227Z,1.40
2023-03-16T12:03:15.012Z,1.80
2023-03-16T12:05:55.931Z,1.73
2023-03-16T12:08:31.464Z,1.70
2023-03-16T12:11:53.735Z,1.63
2023-03-16T12:14:36.843Z,1.50
2023-03-16T12:17:12.357Z,1.50
2023-03-16T12:19:45.755Z,1.75
2023-03-16T12:23:02.504Z,1.60
2023-03-16T12:25:34.565Z,1.58
2023-03-16T12:28:27.808Z,1.63
2023-03-16T12:31:42.353Z,1.48
2023-03-16T12:34:59.830Z,1.60
2023-03-16T12:37:45.854Z,1.58
2023-03-16T12:40:22.258Z,1.50
2023-03-16T12:43:18.131Z,1.40
2023-03-16T12:45:57.759Z,1.17
2023-03-16T12:48:32.386Z,1.40
2023-03-16T12:51:03.201Z,1.60
2023-03-16T12:53:53.237Z,1.67
2023-03-16T12:56:32.069Z,1.48
2023-03-16T12:59:03.866Z,1.50
2023-03-16T13:01:44.365Z,1.58
2023-03-16T13:04:16.891Z,1.38
2023-03-16T13:06:50.492Z,1.65
2023-03-16T13:09:22.066Z,1.98
2023-03-16T13:11:50.304Z,1.55
2023-03-16T13:14:32.557Z,1.40
2023-03-16T13:19:37.904Z,1.50
2023-03-16T13:22:18.507Z,1.40
2023-03-16T13:25:11.255Z,1.70
2023-03-16T13:27:40.624Z,1.52
2023-03-16T13:30:35.051Z,1.60
2023-03-16T13:33:20.956Z,1.70
2023-03-16T13:35:51.275Z,1.77
2023-03-16T13:38:22.701Z,1.50
2023-03-16T13:40:53.074Z,1.50
2023-03-16T13:43:24.538Z,1.60
2023-03-16T13:45:52.283Z,1.65
2023-03-16T13:48:19.946Z,1.73
2023-03-16T13:50:57.712Z,1.65
2023-03-16T13:53:32.697Z,1.92
2023-03-16T13:56:02.668Z,1.80
2023-03-16T13:58:35.527Z,1.60
2023-03-16T14:01:11.866Z,1.55
2023-03-16T14:03:42.729Z,1.33
2023-03-16T14:06:26.957Z,1.80
2023-03-16T14:09:01.341Z,1.67
2023-03-16T14:11:29.193Z,1.70
2023-03-16T14:13:58.832Z,1.48
2023-03-16T14:16:29.822Z,1.83
2023-03-16T14:19:04.258Z,1.90
2023-03-16T14:21:35.927Z,1.80
2023-03-16T14:24:06.764Z,1.80
2023-03-16T14:26:46.047Z,1.92
2023-03-16T14:29:24.920Z,1.52
2023-03-16T14:31:53.111Z,1.80
2023-03-16T14:34:31.152Z,1.90
2023-03-16T14:37:06.745Z,1.88
2023-03-16T14:39:34.580Z,1.80
2023-03-16T14:42:05.456Z,1.75
2023-03-16T14:44:35.999Z,1.50
2023-03-16T14:47:05.876Z,2.35
2023-03-16T14:49:38.624Z,2.38
2023-03-16T14:52:23.953Z,1.88
2023-03-16T14:54:52.319Z,2.15
2023-03-16T14:57:19.947Z,1.83
2023-03-16T14:59:47.969Z,2.25
2023-03-16T15:02:20.215Z,1.80
2023-03-16T15:04:48.765Z,1.83
2023-03-16T15:07:28.597Z,1.70
2023-03-16T15:10:15.342Z,1.83
2023-03-16T15:12:53.884Z,1.90
2023-03-16T15:15:23.643Z,2.15
2023-03-16T15:17:52.554Z,2.25
2023-03-16T15:20:25.636Z,2.13
2023-03-16T15:22:53.405Z,1.80
2023-03-16T15:25:37.270Z,2.00
2023-03-16T15:28:18.272Z,2.20
2023-03-16T15:30:48.217Z,1.88
2023-03-16T15:33:17.137Z,1.88
2023-03-16T15:35:46.835Z,1.80
2023-03-16T15:38:20.347Z,1.50
2023-03-16T15:40:48.432Z,1.90
2023-03-16T15:43:18.562Z,1.75
2023-03-16T15:45:47.293Z,2.38
2023-03-16T15:48:15.512Z,1.83
2023-03-16T15:50:50.250Z,2.03
2023-03-16T15:53:30.625Z,2.00
2023-03-16T15:56:05.168Z,2.10
2023-03-16T15:58:35.074Z,2.00
2023-03-16T16:01:04.258Z,1.77
2023-03-16T16:03:31.683Z,1.98
2023-03-16T16:05:59.028Z,1.90
2023-03-16T16:08:26.487Z,2.05
2023-03-16T16:10:54.545Z,2.15
2023-03-16T16:13:37.582Z,1.92
2023-03-16T16:16:13.777Z,2.10
2023-03-16T16:18:41.923Z,2.00
2023-03-16T16:21:16.966Z,2.00
2023-03-16T16:23:44.683Z,2.05
2023-03-16T16:26:46.939Z,1.90
2023-03-16T16:29:18.394Z,1.83
2023-03-16T16:31:46.121Z,2.20
2023-03-16T16:34:15.941Z,1.80
2023-03-16T16:36:43.872Z,2.25
2023-03-16T16:39:12.609Z,2.17
2023-03-16T16:41:42.133Z,2.25
2023-03-16T16:44:18.856Z,2.15
2023-03-16T16:46:49.037Z,1.90
2023-03-16T16:49:21.041Z,2.13
2023-03-16T16:54:19.305Z,2.25
2023-03-16T16:56:48.971Z,2.17
2023-03-16T16:59:18.363Z,2.13
2023-03-16T17:01:47.454Z,2.50
2023-03-16T17:04:24.736Z,2.80
2023-03-16T17:06:55.567Z,2.83
2023-03-16T17:09:24.950Z,2.70
2023-03-16T17:11:54.111Z,2.97
2023-03-16T17:14:22.288Z,2.33
2023-03-16T17:16:51.659Z,2.42
2023-03-16T17:19:24.101Z,2.88
2023-03-16T17:21:53.462Z,2.70
2023-03-16T17:24:21.011Z,2.45
2023-03-16T17:26:52.627Z,2.90
2023-03-16T17:29:34.187Z,2.90
2023-03-16T17:32:04.379Z,2.70
2023-03-16T17:34:34.118Z,2.88
2023-03-16T17:37:02.259Z,2.95
2023-03-16T17:39:32.551Z,2.90
2023-03-16T17:42:03.767Z,3.25
2023-03-16T17:44:34.639Z,3.50
2023-03-16T17:47:02.247Z,2.97
2023-03-16T17:49:30.781Z,3.35
2023-03-16T17:51:58.232Z,3.53
2023-03-16T17:54:25.612Z,3.30
2023-03-16T17:56:54.156Z,3.10
2023-03-16T17:59:22.979Z,2.88
2023-03-16T18:01:50.480Z,3.30
2023-03-16T18:04:23.226Z,3.13
2023-03-16T18:06:51.535Z,2.88
2023-03-16T18:09:20.574Z,2.97
2023-03-16T18:11:50.996Z,3.45
2023-03-16T18:14:35.073Z,3.47
2023-03-16T18:17:21.930Z,3.28
2023-03-16T18:19:49.694Z,2.83
2023-03-16T18:22:19.482Z,2.65
2023-03-16T18:24:48.488Z,2.83
2023-03-16T18:27:16.226Z,2.40
2023-03-16T18:29:44.446Z,2.67
2023-03-16T18:32:21.764Z,2.40
2023-03-16T18:34:49.641Z,2.75
2023-03-16T18:37:25.144Z,2.78
2023-03-16T18:39:53.242Z,2.60
2023-03-16T18:42:26.240Z,2.40
2023-03-16T18:44:54.135Z,2.30
2023-03-16T18:47:23.736Z,2.70
2023-03-16T18:49:54.135Z,2.80
2023-03-16T18:52:27.987Z,2.80
2023-03-16T18:54:55.755Z,3.50
2023-03-16T18:57:28.180Z,3.70
2023-03-16T18:59:55.728Z,5.43
2023-03-16T19:02:37.297Z,4.32
2023-03-16T19:05:17.131Z,3.20
2023-03-16T19:07:48.623Z,2.88
2023-03-16T19:10:29.967Z,3.20
2023-03-16T19:12:58.666Z,3.97
2023-03-16T19:15:32.523Z,3.95
2023-03-16T19:18:00.243Z,3.85
2023-03-16T19:20:30.538Z,3.67
2023-03-16T19:23:08.579Z,3.88
2023-03-16T19:25:38.878Z,3.55
2023-03-16T19:28:07.692Z,3.65
2023-03-16T19:30:36.121Z,3.75
2023-03-16T19:33:03.551Z,3.42
2023-03-16T19:35:48.535Z,3.22
2023-03-16T19:38:19.296Z,3.20
2023-03-16T19:40:51.907Z,3.00
2023-03-16T19:43:21.291Z,3.58
2023-03-16T19:45:49.464Z,3.65
2023-03-16T19:48:22.637Z,3.08
2023-03-16T19:50:51.232Z,2.80
2023-03-16T19:53:20.758Z,2.67
2023-03-16T19:55:50.595Z,2.90
2023-03-16T19:58:23.624Z,2.72
2023-03-16T20:00:51.220Z,3.22
2023-03-16T20:03:18.626Z,2.85
2023-03-16T20:05:46.095Z,2.63
2023-03-16T20:08:21.828Z,3.30
2023-03-16T20:10:50.033Z,2.65
2023-03-16T20:13:18.426Z,3.72
2023-03-16T20:15:46.564Z,4.70
2023-03-16T20:18:16.407Z,4.10
2023-03-16T20:20:44.608Z,4.18
2023-03-16T20:23:32.617Z,3.92
2023-03-16T20:26:02.727Z,3.72
2023-03-16T20:28:36.331Z,4.05
2023-03-16T20:31:08.129Z,4.07
2023-03-16T20:33:36.018Z,9.98
2023-03-16T20:36:03.892Z,4.75
2023-03-16T20:38:31.429Z,4.20
2023-03-16T20:40:58.846Z,4.30
2023-03-16T20:43:31.442Z,4.30
2023-03-16T20:46:02.334Z,3.85
2023-03-16T20:48:29.759Z,4.72
2023-03-16T20:51:00.558Z,4.35
2023-03-16T20:53:27.889Z,4.30
2023-03-16T20:55:56.832Z,4.82
2023-03-16T20:58:27.956Z,4.28
2023-03-16T21:00:57.788Z,5.10
2023-03-16T21:03:28.515Z,4.82
2023-03-16T21:05:59.812Z,4.70
2023-03-16T21:08:27.599Z,4.80
2023-03-16T21:10:57.145Z,4.38
2023-03-16T21:13:30.877Z,4.85
2023-03-16T21:16:00.378Z,5.05
2023-03-16T21:18:28.073Z,4.68
2023-03-16T21:20:56.254Z,5.30
2023-03-16T21:23:24.217Z,4.53
2023-03-16T21:25:55.132Z,4.90
2023-03-16T21:28:25.671Z,5.03
2023-03-16T21:30:57.676Z,4.93
2023-03-16T21:35:52.374Z,5.97
2023-03-16T21:38:21.033Z,5.10
2023-03-16T21:40:49.130Z,5.63
2023-03-16T21:43:16.802Z,5.15
2023-03-16T21:45:46.051Z,5.07
2023-03-16T21:48:20.295Z,5.43
2023-03-16T21:50:48.497Z,6.25
2023-03-16T21:53:22.705Z,5.07
2023-03-16T21:55:54.607Z,4.80
2023-03-16T21:58:24.076Z,4.40
2023-03-16T22:00:52.751Z,4.32
2023-03-16T22:03:47.728Z,4.50
2023-03-16T22:06:17.055Z,3.80
2023-03-16T22:08:44.552Z,4.28
2023-03-16T22:11:20.495Z,4.43
2023-03-16T22:13:48.384Z,4.18
2023-03-16T22:16:22.147Z,4.32
2023-03-16T22:18:52.295Z,3.92
2023-03-16T22:21:39.187Z,4.10
2023-03-16T22:24:26.406Z,4.28
2023-03-16T22:26:54.361Z,4.32
2023-03-16T22:29:30.221Z,4.18
2023-03-16T22:32:04.456Z,4.47
2023-03-16T22:34:43.665Z,4.03
2023-03-16T22:37:17.036Z,4.18
2023-03-16T22:39:44.863Z,4.35
2023-03-16T22:42:26.160Z,4.28
2023-03-16T22:44:55.292Z,4.13
2023-03-16T22:47:28.109Z,3.70
2023-03-16T22:49:55.440Z,3.83
2023-03-16T22:52:27.417Z,3.72
2023-03-16T22:57:22.537Z,3.63
2023-03-16T22:59:51.428Z,4.18
2023-03-16T23:02:24.246Z,3.67
2023-03-16T23:04:51.589Z,3.42
2023-03-16T23:07:20.138Z,3.65
2023-03-16T23:09:48.568Z,3.90
2023-03-16T23:12:21.303Z,3.42
2023-03-16T23:14:48.699Z,3.83
2023-03-16T23:17:22.312Z,3.65
2023-03-16T23:19:49.738Z,3.70
2023-03-16T23:22:17.644Z,3.60
2023-03-16T23:24:44.930Z,3.80
2023-03-16T23:27:22.269Z,4.07
2023-03-16T23:29:49.668Z,4.07
2023-03-16T23:32:17.224Z,4.65
2023-03-16T23:34:44.907Z,3.80
2023-03-16T23:37:12.592Z,3.40
2023-03-16T23:39:40.075Z,3.45
2023-03-16T23:42:07.829Z,4.10
2023-03-16T23:44:36.059Z,3.95
2023-03-16T23:47:03.456Z,4.10
2023-03-16T23:49:35.994Z,3.78
2023-03-16T23:52:03.968Z,3.72
2023-03-16T23:54:32.720Z,3.97
2023-03-16T23:57:00.156Z,3.85
2023-03-16T23:59:28.704Z,3.92
